sensor_id;sensor_type;location;lat;lon;timestamp;P1;durP1;ratioP1;P2;durP2;ratioP2
53875;SDS011;39789;53.216;5.624;2023-10-13T00:03:52;165.10;;;59.58;;
53875;SDS011;39789;53.216;5.624;2023-10-13T00:06:19;126.78;;;56.17;;
53875;SDS011;39789;53.216;5.624;2023-10-13T00:08:45;152.07;;;57.90;;
53875;SDS011;39789;53.216;5.624;2023-10-13T00:11:14;145.10;;;58.17;;
53875;SDS011;39789;53.216;5.624;2023-10-13T00:13:41;144.82;;;58.40;;
53875;SDS011;39789;53.216;5.624;2023-10-13T00:16:18;140.23;;;62.28;;
53875;SDS011;39789;53.216;5.624;2023-10-13T00:18:48;123.82;;;54.53;;
53875;SDS011;39789;53.216;5.624;2023-10-13T00:21:16;125.57;;;57.67;;
53875;SDS011;39789;53.216;5.624;2023-10-13T00:23:55;124.22;;;57.25;;
53875;SDS011;39789;53.216;5.624;2023-10-13T00:26:23;121.70;;;55.60;;
53875;SDS011;39789;53.216;5.624;2023-10-13T00:28:58;121.63;;;56.15;;
53875;SDS011;39789;53.216;5.624;2023-10-13T00:31:39;123.15;;;58.67;;
53875;SDS011;39789;53.216;5.624;2023-10-13T00:34:07;118.40;;;55.60;;
53875;SDS011;39789;53.216;5.624;2023-10-13T00:39:39;110.13;;;53.83;;
53875;SDS011;39789;53.216;5.624;2023-10-13T00:42:09;121.07;;;56.58;;
53875;SDS011;39789;53.216;5.624;2023-10-13T00:44:43;103.97;;;54.30;;
53875;SDS011;39789;53.216;5.624;2023-10-13T00:47:13;114.00;;;52.83;;
53875;SDS011;39789;53.216;5.624;2023-10-13T00:50:02;96.47;;;51.03;;
53875;SDS011;39789;53.216;5.624;2023-10-13T00:52:40;102.57;;;50.80;;
53875;SDS011;39789;53.216;5.624;2023-10-13T00:55:12;92.32;;;48.95;;
53875;SDS011;39789;53.216;5.624;2023-10-13T00:57:39;92.07;;;45.70;;
53875;SDS011;39789;53.216;5.624;2023-10-13T01:00:06;90.25;;;44.58;;
53875;SDS011;39789;53.216;5.624;2023-10-13T01:02:53;79.40;;;42.08;;
53875;SDS011;39789;53.216;5.624;2023-10-13T01:05:21;82.47;;;41.35;;
53875;SDS011;39789;53.216;5.624;2023-10-13T01:07:48;70.57;;;39.25;;
53875;SDS011;39789;53.216;5.624;2023-10-13T01:10:17;68.85;;;36.33;;
53875;SDS011;39789;53.216;5.624;2023-10-13T01:12:45;74.10;;;38.15;;
53875;SDS011;39789;53.216;5.624;2023-10-13T01:15:12;62.50;;;34.90;;
53875;SDS011;39789;53.216;5.624;2023-10-13T01:17:42;63.90;;;35.65;;
53875;SDS011;39789;53.216;5.624;2023-10-13T01:20:10;60.75;;;35.28;;
53875;SDS011;39789;53.216;5.624;2023-10-13T01:22:39;59.40;;;32.55;;
53875;SDS011;39789;53.216;5.624;2023-10-13T01:25:06;57.08;;;30.00;;
53875;SDS011;39789;53.216;5.624;2023-10-13T01:27:38;51.45;;;30.13;;
53875;SDS011;39789;53.216;5.624;2023-10-13T01:30:04;48.17;;;28.45;;
53875;SDS011;39789;53.216;5.624;2023-10-13T01:32:35;48.78;;;28.08;;
53875;SDS011;39789;53.216;5.624;2023-10-13T01:35:06;40.90;;;25.50;;
53875;SDS011;39789;53.216;5.624;2023-10-13T01:37:32;40.38;;;24.17;;
53875;SDS011;39789;53.216;5.624;2023-10-13T01:39:58;35.28;;;22.95;;
53875;SDS011;39789;53.216;5.624;2023-10-13T01:42:24;32.97;;;22.10;;
53875;SDS011;39789;53.216;5.624;2023-10-13T01:44:50;35.05;;;21.52;;
53875;SDS011;39789;53.216;5.624;2023-10-13T01:47:16;32.85;;;19.50;;
53875;SDS011;39789;53.216;5.624;2023-10-13T01:49:42;30.15;;;20.73;;
53875;SDS011;39789;53.216;5.624;2023-10-13T01:52:18;28.38;;;18.88;;
53875;SDS011;39789;53.216;5.624;2023-10-13T01:54:43;29.63;;;18.23;;
53875;SDS011;39789;53.216;5.624;2023-10-13T01:57:14;23.52;;;16.75;;
53875;SDS011;39789;53.216;5.624;2023-10-13T01:59:46;28.65;;;17.92;;
53875;SDS011;39789;53.216;5.624;2023-10-13T02:02:13;30.25;;;16.75;;
53875;SDS011;39789;53.216;5.624;2023-10-13T02:04:53;20.80;;;14.60;;
53875;SDS011;39789;53.216;5.624;2023-10-13T02:07:25;25.92;;;14.05;;
53875;SDS011;39789;53.216;5.624;2023-10-13T02:09:59;24.42;;;13.38;;
53875;SDS011;39789;53.216;5.624;2023-10-13T02:12:29;21.80;;;13.18;;
53875;SDS011;39789;53.216;5.624;2023-10-13T02:15:07;21.60;;;12.40;;
53875;SDS011;39789;53.216;5.624;2023-10-13T02:17:51;22.58;;;11.90;;
53875;SDS011;39789;53.216;5.624;2023-10-13T02:20:19;18.48;;;11.93;;
53875;SDS011;39789;53.216;5.624;2023-10-13T02:22:51;24.17;;;12.70;;
53875;SDS011;39789;53.216;5.624;2023-10-13T02:25:17;21.38;;;12.40;;
53875;SDS011;39789;53.216;5.624;2023-10-13T02:28:04;19.42;;;13.15;;
53875;SDS011;39789;53.216;5.624;2023-10-13T02:30:39;20.10;;;13.32;;
53875;SDS011;39789;53.216;5.624;2023-10-13T02:33:16;20.90;;;13.50;;
53875;SDS011;39789;53.216;5.624;2023-10-13T02:35:58;24.00;;;14.55;;
53875;SDS011;39789;53.216;5.624;2023-10-13T02:38:28;23.02;;;14.57;;
53875;SDS011;39789;53.216;5.624;2023-10-13T02:41:13;22.13;;;14.90;;
53875;SDS011;39789;53.216;5.624;2023-10-13T02:43:54;25.65;;;15.25;;
53875;SDS011;39789;53.216;5.624;2023-10-13T02:46:20;22.55;;;15.40;;
53875;SDS011;39789;53.216;5.624;2023-10-13T02:48:47;23.67;;;16.58;;
53875;SDS011;39789;53.216;5.624;2023-10-13T02:51:18;25.90;;;17.88;;
53875;SDS011;39789;53.216;5.624;2023-10-13T02:54:02;27.75;;;18.40;;
53875;SDS011;39789;53.216;5.624;2023-10-13T02:56:38;26.42;;;17.83;;
53875;SDS011;39789;53.216;5.624;2023-10-13T02:59:14;27.67;;;19.30;;
53875;SDS011;39789;53.216;5.624;2023-10-13T03:01:40;28.70;;;19.67;;
53875;SDS011;39789;53.216;5.624;2023-10-13T03:04:06;31.95;;;21.08;;
53875;SDS011;39789;53.216;5.624;2023-10-13T03:06:34;28.55;;;21.00;;
53875;SDS011;39789;53.216;5.624;2023-10-13T03:09:06;38.25;;;21.02;;
53875;SDS011;39789;53.216;5.624;2023-10-13T03:11:47;30.77;;;20.63;;
53875;SDS011;39789;53.216;5.624;2023-10-13T03:14:14;35.83;;;22.15;;
53875;SDS011;39789;53.216;5.624;2023-10-13T03:16:54;32.72;;;22.80;;
53875;SDS011;39789;53.216;5.624;2023-10-13T03:19:30;38.28;;;22.75;;
53875;SDS011;39789;53.216;5.624;2023-10-13T03:22:00;37.65;;;23.45;;
53875;SDS011;39789;53.216;5.624;2023-10-13T03:24:37;40.28;;;25.02;;
53875;SDS011;39789;53.216;5.624;2023-10-13T03:27:10;45.95;;;26.75;;
53875;SDS011;39789;53.216;5.624;2023-10-13T03:29:42;45.40;;;25.20;;
53875;SDS011;39789;53.216;5.624;2023-10-13T03:32:14;43.67;;;27.23;;
53875;SDS011;39789;53.216;5.624;2023-10-13T03:34:44;49.58;;;30.65;;
53875;SDS011;39789;53.216;5.624;2023-10-13T03:37:31;58.60;;;30.63;;
53875;SDS011;39789;53.216;5.624;2023-10-13T03:40:10;44.17;;;30.38;;
53875;SDS011;39789;53.216;5.624;2023-10-13T03:42:55;52.70;;;33.85;;
53875;SDS011;39789;53.216;5.624;2023-10-13T03:48:08;53.45;;;32.42;;
53875;SDS011;39789;53.216;5.624;2023-10-13T03:50:59;52.95;;;31.45;;
53875;SDS011;39789;53.216;5.624;2023-10-13T03:53:35;53.97;;;31.45;;
53875;SDS011;39789;53.216;5.624;2023-10-13T03:56:17;58.85;;;32.08;;
53875;SDS011;39789;53.216;5.624;2023-10-13T03:58:56;56.58;;;32.88;;
53875;SDS011;39789;53.216;5.624;2023-10-13T04:01:31;48.20;;;29.90;;
53875;SDS011;39789;53.216;5.624;2023-10-13T04:04:05;57.40;;;31.67;;
53875;SDS011;39789;53.216;5.624;2023-10-13T04:06:36;52.00;;;30.38;;
53875;SDS011;39789;53.216;5.624;2023-10-13T04:09:18;51.55;;;30.63;;
53875;SDS011;39789;53.216;5.624;2023-10-13T04:11:57;48.17;;;29.77;;
53875;SDS011;39789;53.216;5.624;2023-10-13T04:14:44;48.38;;;28.38;;
53875;SDS011;39789;53.216;5.624;2023-10-13T04:17:28;45.70;;;28.10;;
53875;SDS011;39789;53.216;5.624;2023-10-13T04:19:58;44.47;;;27.92;;
53875;SDS011;39789;53.216;5.624;2023-10-13T04:28:02;42.92;;;26.08;;
53875;SDS011;39789;53.216;5.624;2023-10-13T04:30:37;42.58;;;26.17;;
53875;SDS011;39789;53.216;5.624;2023-10-13T04:33:21;42.15;;;25.30;;
53875;SDS011;39789;53.216;5.624;2023-10-13T04:38:51;33.88;;;19.33;;
53875;SDS011;39789;53.216;5.624;2023-10-13T04:46:51;15.73;;;11.65;;
53875;SDS011;39789;53.216;5.624;2023-10-13T04:49:27;16.85;;;12.13;;
53875;SDS011;39789;53.216;5.624;2023-10-13T04:51:58;20.60;;;14.23;;
53875;SDS011;39789;53.216;5.624;2023-10-13T04:54:43;22.27;;;14.35;;
53875;SDS011;39789;53.216;5.624;2023-10-13T04:57:17;24.63;;;16.60;;
53875;SDS011;39789;53.216;5.624;2023-10-13T04:59:45;28.77;;;18.27;;
53875;SDS011;39789;53.216;5.624;2023-10-13T05:02:29;28.65;;;18.75;;
53875;SDS011;39789;53.216;5.624;2023-10-13T05:05:05;26.27;;;19.10;;
53875;SDS011;39789;53.216;5.624;2023-10-13T05:07:40;32.28;;;21.77;;
53875;SDS011;39789;53.216;5.624;2023-10-13T05:10:25;30.90;;;20.80;;
53875;SDS011;39789;53.216;5.624;2023-10-13T05:13:09;29.33;;;20.15;;
53875;SDS011;39789;53.216;5.624;2023-10-13T05:15:53;28.42;;;19.48;;
53875;SDS011;39789;53.216;5.624;2023-10-13T05:18:37;28.63;;;17.42;;
53875;SDS011;39789;53.216;5.624;2023-10-13T05:21:22;23.85;;;18.48;;
53875;SDS011;39789;53.216;5.624;2023-10-13T05:26:51;26.63;;;16.60;;
53875;SDS011;39789;53.216;5.624;2023-10-13T05:29:39;21.70;;;16.27;;
53875;SDS011;39789;53.216;5.624;2023-10-13T05:32:24;22.33;;;15.88;;
53875;SDS011;39789;53.216;5.624;2023-10-13T05:35:08;21.20;;;14.55;;
53875;SDS011;39789;53.216;5.624;2023-10-13T05:37:52;17.70;;;13.70;;
53875;SDS011;39789;53.216;5.624;2023-10-13T05:40:36;18.88;;;13.13;;
53875;SDS011;39789;53.216;5.624;2023-10-13T05:43:21;15.95;;;11.38;;
53875;SDS011;39789;53.216;5.624;2023-10-13T05:46:18;10.55;;;9.32;;
53875;SDS011;39789;53.216;5.624;2023-10-13T05:48:50;10.52;;;8.30;;
53875;SDS011;39789;53.216;5.624;2023-10-13T05:51:29;10.52;;;7.85;;
53875;SDS011;39789;53.216;5.624;2023-10-13T05:54:08;10.73;;;7.57;;
53875;SDS011;39789;53.216;5.624;2023-10-13T05:56:38;10.45;;;7.85;;
53875;SDS011;39789;53.216;5.624;2023-10-13T05:59:26;11.52;;;8.60;;
53875;SDS011;39789;53.216;5.624;2023-10-13T06:02:12;10.80;;;8.25;;
53875;SDS011;39789;53.216;5.624;2023-10-13T06:04:57;10.23;;;7.50;;
53875;SDS011;39789;53.216;5.624;2023-10-13T06:07:44;11.57;;;8.05;;
53875;SDS011;39789;53.216;5.624;2023-10-13T06:10:28;9.55;;;8.23;;
53875;SDS011;39789;53.216;5.624;2023-10-13T06:13:12;12.57;;;9.00;;
53875;SDS011;39789;53.216;5.624;2023-10-13T06:15:56;11.65;;;8.70;;
53875;SDS011;39789;53.216;5.624;2023-10-13T06:18:40;12.32;;;8.60;;
53875;SDS011;39789;53.216;5.624;2023-10-13T06:21:25;14.70;;;9.35;;
53875;SDS011;39789;53.216;5.624;2023-10-13T06:24:09;11.10;;;9.27;;
53875;SDS011;39789;53.216;5.624;2023-10-13T06:26:53;13.45;;;8.38;;
53875;SDS011;39789;53.216;5.624;2023-10-13T06:29:37;10.45;;;6.25;;
53875;SDS011;39789;53.216;5.624;2023-10-13T06:32:03;16.40;;;7.97;;
53875;SDS011;39789;53.216;5.624;2023-10-13T06:34:36;18.85;;;7.63;;
53875;SDS011;39789;53.216;5.624;2023-10-13T06:37:14;24.48;;;8.63;;
53875;SDS011;39789;53.216;5.624;2023-10-13T06:40:03;25.63;;;9.02;;
53875;SDS011;39789;53.216;5.624;2023-10-13T06:42:50;37.63;;;11.23;;
53875;SDS011;39789;53.216;5.624;2023-10-13T06:45:18;27.85;;;9.95;;
53875;SDS011;39789;53.216;5.624;2023-10-13T06:47:46;22.70;;;8.55;;
53875;SDS011;39789;53.216;5.624;2023-10-13T06:50:13;17.70;;;7.90;;
53875;SDS011;39789;53.216;5.624;2023-10-13T06:52:47;18.60;;;6.63;;
53875;SDS011;39789;53.216;5.624;2023-10-13T06:55:14;13.10;;;6.00;;
53875;SDS011;39789;53.216;5.624;2023-10-13T06:57:51;11.57;;;6.28;;
53875;SDS011;39789;53.216;5.624;2023-10-13T07:00:17;13.85;;;6.00;;
53875;SDS011;39789;53.216;5.624;2023-10-13T07:03:00;15.57;;;7.68;;
53875;SDS011;39789;53.216;5.624;2023-10-13T07:08:03;22.25;;;8.23;;
53875;SDS011;39789;53.216;5.624;2023-10-13T07:10:30;21.38;;;9.25;;
53875;SDS011;39789;53.216;5.624;2023-10-13T07:12:57;22.00;;;8.98;;
53875;SDS011;39789;53.216;5.624;2023-10-13T07:15:25;26.63;;;8.80;;
53875;SDS011;39789;53.216;5.624;2023-10-13T07:17:54;25.52;;;9.57;;
53875;SDS011;39789;53.216;5.624;2023-10-13T07:20:20;24.15;;;9.27;;
53875;SDS011;39789;53.216;5.624;2023-10-13T07:22:58;25.05;;;8.80;;
53875;SDS011;39789;53.216;5.624;2023-10-13T07:25:31;23.23;;;8.98;;
53875;SDS011;39789;53.216;5.624;2023-10-13T07:28:06;19.65;;;8.57;;
53875;SDS011;39789;53.216;5.624;2023-10-13T07:30:36;21.60;;;9.32;;
53875;SDS011;39789;53.216;5.624;2023-10-13T07:33:14;19.77;;;9.25;;
53875;SDS011;39789;53.216;5.624;2023-10-13T07:35:45;21.35;;;9.25;;
53875;SDS011;39789;53.216;5.624;2023-10-13T07:38:25;21.90;;;8.77;;
53875;SDS011;39789;53.216;5.624;2023-10-13T07:40:55;20.65;;;9.45;;
53875;SDS011;39789;53.216;5.624;2023-10-13T07:43:25;23.30;;;9.30;;
53875;SDS011;39789;53.216;5.624;2023-10-13T07:45:52;17.40;;;8.80;;
53875;SDS011;39789;53.216;5.624;2023-10-13T07:48:23;23.50;;;8.75;;
53875;SDS011;39789;53.216;5.624;2023-10-13T07:51:06;19.85;;;8.80;;
53875;SDS011;39789;53.216;5.624;2023-10-13T07:53:40;17.13;;;8.93;;
53875;SDS011;39789;53.216;5.624;2023-10-13T07:56:08;19.60;;;8.80;;
53875;SDS011;39789;53.216;5.624;2023-10-13T07:58:37;26.27;;;10.48;;
53875;SDS011;39789;53.216;5.624;2023-10-13T08:01:25;23.05;;;9.07;;
53875;SDS011;39789;53.216;5.624;2023-10-13T08:03:51;24.70;;;9.43;;
53875;SDS011;39789;53.216;5.624;2023-10-13T08:06:34;26.33;;;9.70;;
53875;SDS011;39789;53.216;5.624;2023-10-13T08:09:01;25.85;;;10.18;;
53875;SDS011;39789;53.216;5.624;2023-10-13T08:11:53;22.50;;;10.18;;
53875;SDS011;39789;53.216;5.624;2023-10-13T08:14:19;19.77;;;8.68;;
53875;SDS011;39789;53.216;5.624;2023-10-13T08:16:49;22.45;;;9.50;;
53875;SDS011;39789;53.216;5.624;2023-10-13T08:19:21;19.55;;;9.07;;
53875;SDS011;39789;53.216;5.624;2023-10-13T08:22:04;20.83;;;8.63;;
53875;SDS011;39789;53.216;5.624;2023-10-13T08:24:42;25.50;;;8.82;;
53875;SDS011;39789;53.216;5.624;2023-10-13T08:27:08;19.23;;;8.18;;
53875;SDS011;39789;53.216;5.624;2023-10-13T08:29:43;17.75;;;7.97;;
53875;SDS011;39789;53.216;5.624;2023-10-13T08:32:19;19.45;;;8.05;;
53875;SDS011;39789;53.216;5.624;2023-10-13T08:35:00;14.10;;;7.53;;
53875;SDS011;39789;53.216;5.624;2023-10-13T08:37:32;14.60;;;8.15;;
53875;SDS011;39789;53.216;5.624;2023-10-13T08:40:11;11.80;;;7.70;;
53875;SDS011;39789;53.216;5.624;2023-10-13T08:42:57;15.05;;;8.15;;
53875;SDS011;39789;53.216;5.624;2023-10-13T08:45:28;14.27;;;7.68;;
53875;SDS011;39789;53.216;5.624;2023-10-13T08:47:58;15.05;;;8.55;;
53875;SDS011;39789;53.216;5.624;2023-10-13T08:50:51;12.85;;;8.63;;
53875;SDS011;39789;53.216;5.624;2023-10-13T08:55:56;13.35;;;9.15;;
53875;SDS011;39789;53.216;5.624;2023-10-13T08:58:29;15.90;;;9.50;;
53875;SDS011;39789;53.216;5.624;2023-10-13T09:01:15;12.13;;;9.00;;
53875;SDS011;39789;53.216;5.624;2023-10-13T09:04:00;15.75;;;9.80;;
53875;SDS011;39789;53.216;5.624;2023-10-13T09:06:52;14.95;;;9.75;;
53875;SDS011;39789;53.216;5.624;2023-10-13T09:09:31;16.08;;;10.18;;
53875;SDS011;39789;53.216;5.624;2023-10-13T09:12:13;16.55;;;10.32;;
53875;SDS011;39789;53.216;5.624;2023-10-13T09:14:40;16.45;;;10.27;;
53875;SDS011;39789;53.216;5.624;2023-10-13T09:17:13;14.70;;;10.80;;
53875;SDS011;39789;53.216;5.624;2023-10-13T09:19:45;17.42;;;11.02;;
53875;SDS011;39789;53.216;5.624;2023-10-13T09:22:24;16.88;;;9.57;;
53875;SDS011;39789;53.216;5.624;2023-10-13T09:24:56;17.23;;;9.85;;
53875;SDS011;39789;53.216;5.624;2023-10-13T09:27:25;10.35;;;8.27;;
53875;SDS011;39789;53.216;5.624;2023-10-13T09:29:56;13.30;;;9.10;;
53875;SDS011;39789;53.216;5.624;2023-10-13T09:32:22;16.35;;;9.25;;
53875;SDS011;39789;53.216;5.624;2023-10-13T09:34:47;12.95;;;8.80;;
53875;SDS011;39789;53.216;5.624;2023-10-13T09:37:15;20.00;;;8.82;;
53875;SDS011;39789;53.216;5.624;2023-10-13T09:39:47;19.23;;;9.52;;
53875;SDS011;39789;53.216;5.624;2023-10-13T09:42:18;16.83;;;8.60;;
53875;SDS011;39789;53.216;5.624;2023-10-13T09:44:44;16.17;;;8.35;;
53875;SDS011;39789;53.216;5.624;2023-10-13T09:47:18;16.15;;;8.32;;
53875;SDS011;39789;53.216;5.624;2023-10-13T09:49:55;16.02;;;7.78;;
53875;SDS011;39789;53.216;5.624;2023-10-13T09:52:31;20.58;;;7.93;;
53875;SDS011;39789;53.216;5.624;2023-10-13T09:55:03;15.27;;;7.75;;
53875;SDS011;39789;53.216;5.624;2023-10-13T09:57:37;13.65;;;8.05;;
53875;SDS011;39789;53.216;5.624;2023-10-13T10:02:55;17.13;;;7.88;;
53875;SDS011;39789;53.216;5.624;2023-10-13T10:05:29;16.48;;;7.80;;
53875;SDS011;39789;53.216;5.624;2023-10-13T10:07:59;12.80;;;7.72;;
53875;SDS011;39789;53.216;5.624;2023-10-13T10:10:39;15.23;;;8.10;;
53875;SDS011;39789;53.216;5.624;2023-10-13T10:13:21;16.45;;;7.57;;
53875;SDS011;39789;53.216;5.624;2023-10-13T10:16:00;14.25;;;7.32;;
53875;SDS011;39789;53.216;5.624;2023-10-13T10:18:39;12.73;;;7.22;;
53875;SDS011;39789;53.216;5.624;2023-10-13T10:21:06;21.02;;;7.90;;
53875;SDS011;39789;53.216;5.624;2023-10-13T10:23:35;19.92;;;7.03;;
53875;SDS011;39789;53.216;5.624;2023-10-13T10:26:15;12.88;;;7.47;;
53875;SDS011;39789;53.216;5.624;2023-10-13T10:28:45;15.77;;;7.15;;
53875;SDS011;39789;53.216;5.624;2023-10-13T10:31:11;16.65;;;7.40;;
53875;SDS011;39789;53.216;5.624;2023-10-13T10:33:38;12.82;;;7.05;;
53875;SDS011;39789;53.216;5.624;2023-10-13T10:36:04;17.67;;;7.07;;
53875;SDS011;39789;53.216;5.624;2023-10-13T10:38:30;12.55;;;5.90;;
53875;SDS011;39789;53.216;5.624;2023-10-13T10:41:03;16.75;;;6.78;;
53875;SDS011;39789;53.216;5.624;2023-10-13T10:46:08;12.65;;;6.18;;
53875;SDS011;39789;53.216;5.624;2023-10-13T10:48:37;16.02;;;7.15;;
53875;SDS011;39789;53.216;5.624;2023-10-13T10:51:07;18.58;;;7.32;;
53875;SDS011;39789;53.216;5.624;2023-10-13T10:53:46;14.35;;;6.88;;
53875;SDS011;39789;53.216;5.624;2023-10-13T10:56:14;13.80;;;6.60;;
53875;SDS011;39789;53.216;5.624;2023-10-13T10:58:59;20.42;;;7.57;;
53875;SDS011;39789;53.216;5.624;2023-10-13T11:01:26;18.35;;;7.00;;
53875;SDS011;39789;53.216;5.624;2023-10-13T11:03:59;16.58;;;6.75;;
53875;SDS011;39789;53.216;5.624;2023-10-13T11:06:53;21.10;;;7.20;;
53875;SDS011;39789;53.216;5.624;2023-10-13T11:09:27;23.92;;;7.70;;
53875;SDS011;39789;53.216;5.624;2023-10-13T11:11:56;19.42;;;6.93;;
53875;SDS011;39789;53.216;5.624;2023-10-13T11:15:03;16.88;;;6.90;;
53875;SDS011;39789;53.216;5.624;2023-10-13T11:17:40;14.63;;;6.90;;
53875;SDS011;39789;53.216;5.624;2023-10-13T11:20:13;11.63;;;6.77;;
53875;SDS011;39789;53.216;5.624;2023-10-13T11:22:48;18.27;;;7.50;;
53875;SDS011;39789;53.216;5.624;2023-10-13T11:25:30;18.58;;;6.97;;
53875;SDS011;39789;53.216;5.624;2023-10-13T11:28:09;19.23;;;6.70;;
53875;SDS011;39789;53.216;5.624;2023-10-13T11:30:56;14.80;;;6.43;;
53875;SDS011;39789;53.216;5.624;2023-10-13T11:33:35;15.43;;;6.43;;
53875;SDS011;39789;53.216;5.624;2023-10-13T11:36:01;13.70;;;6.45;;
53875;SDS011;39789;53.216;5.624;2023-10-13T11:41:07;14.77;;;7.40;;
53875;SDS011;39789;53.216;5.624;2023-10-13T11:43:46;13.75;;;7.90;;
53875;SDS011;39789;53.216;5.624;2023-10-13T11:46:18;14.85;;;7.85;;
53875;SDS011;39789;53.216;5.624;2023-10-13T11:49:05;16.25;;;7.57;;
53875;SDS011;39789;53.216;5.624;2023-10-13T11:51:52;20.63;;;9.50;;
53875;SDS011;39789;53.216;5.624;2023-10-13T11:54:27;22.98;;;7.97;;
53875;SDS011;39789;53.216;5.624;2023-10-13T11:56:52;21.92;;;8.98;;
53875;SDS011;39789;53.216;5.624;2023-10-13T11:59:23;23.75;;;9.55;;
53875;SDS011;39789;53.216;5.624;2023-10-13T12:01:53;20.83;;;8.60;;
53875;SDS011;39789;53.216;5.624;2023-10-13T12:04:37;24.60;;;9.15;;
53875;SDS011;39789;53.216;5.624;2023-10-13T12:07:16;17.83;;;9.07;;
53875;SDS011;39789;53.216;5.624;2023-10-13T12:09:49;17.85;;;8.77;;
53875;SDS011;39789;53.216;5.624;2023-10-13T12:14:51;24.35;;;9.52;;
53875;SDS011;39789;53.216;5.624;2023-10-13T12:17:24;22.85;;;8.57;;
53875;SDS011;39789;53.216;5.624;2023-10-13T12:20:03;15.88;;;8.23;;
53875;SDS011;39789;53.216;5.624;2023-10-13T12:22:43;16.05;;;7.55;;
53875;SDS011;39789;53.216;5.624;2023-10-13T12:25:20;18.17;;;9.23;;
53875;SDS011;39789;53.216;5.624;2023-10-13T12:27:58;16.15;;;8.88;;
53875;SDS011;39789;53.216;5.624;2023-10-13T12:30:37;15.85;;;8.95;;
53875;SDS011;39789;53.216;5.624;2023-10-13T12:33:17;16.85;;;8.20;;
53875;SDS011;39789;53.216;5.624;2023-10-13T12:35:59;23.25;;;9.23;;
53875;SDS011;39789;53.216;5.624;2023-10-13T12:41:13;18.65;;;10.18;;
53875;SDS011;39789;53.216;5.624;2023-10-13T12:43:58;24.67;;;10.65;;
53875;SDS011;39789;53.216;5.624;2023-10-13T12:46:42;24.30;;;9.98;;
53875;SDS011;39789;53.216;5.624;2023-10-13T12:49:26;20.10;;;9.48;;
53875;SDS011;39789;53.216;5.624;2023-10-13T12:52:14;16.15;;;8.70;;
53875;SDS011;39789;53.216;5.624;2023-10-13T12:54:44;22.50;;;9.38;;
53875;SDS011;39789;53.216;5.624;2023-10-13T12:57:31;20.70;;;9.23;;
53875;SDS011;39789;53.216;5.624;2023-10-13T12:59:57;22.20;;;9.50;;
53875;SDS011;39789;53.216;5.624;2023-10-13T13:02:23;24.75;;;9.68;;
53875;SDS011;39789;53.216;5.624;2023-10-13T13:04:50;19.40;;;9.93;;
53875;SDS011;39789;53.216;5.624;2023-10-13T13:07:21;25.48;;;10.52;;
53875;SDS011;39789;53.216;5.624;2023-10-13T13:09:48;23.67;;;9.98;;
53875;SDS011;39789;53.216;5.624;2023-10-13T13:12:13;25.90;;;11.15;;
53875;SDS011;39789;53.216;5.624;2023-10-13T13:14:39;25.73;;;11.27;;
53875;SDS011;39789;53.216;5.624;2023-10-13T13:17:11;25.55;;;10.75;;
53875;SDS011;39789;53.216;5.624;2023-10-13T13:19:37;31.77;;;11.50;;
53875;SDS011;39789;53.216;5.624;2023-10-13T13:22:06;27.10;;;11.18;;
53875;SDS011;39789;53.216;5.624;2023-10-13T13:24:42;27.95;;;11.32;;
53875;SDS011;39789;53.216;5.624;2023-10-13T13:27:11;20.02;;;10.07;;
53875;SDS011;39789;53.216;5.624;2023-10-13T13:29:41;29.10;;;10.20;;
53875;SDS011;39789;53.216;5.624;2023-10-13T13:32:11;26.90;;;10.80;;
53875;SDS011;39789;53.216;5.624;2023-10-13T13:34:52;27.58;;;11.20;;
53875;SDS011;39789;53.216;5.624;2023-10-13T13:37:30;24.73;;;11.48;;
53875;SDS011;39789;53.216;5.624;2023-10-13T13:39:56;31.92;;;11.65;;
53875;SDS011;39789;53.216;5.624;2023-10-13T13:42:38;27.90;;;11.13;;
53875;SDS011;39789;53.216;5.624;2023-10-13T13:45:06;24.33;;;11.20;;
53875;SDS011;39789;53.216;5.624;2023-10-13T13:47:37;28.35;;;11.65;;
53875;SDS011;39789;53.216;5.624;2023-10-13T13:50:02;29.73;;;10.93;;
53875;SDS011;39789;53.216;5.624;2023-10-13T13:52:39;31.20;;;11.45;;
53875;SDS011;39789;53.216;5.624;2023-10-13T13:55:11;34.33;;;11.48;;
53875;SDS011;39789;53.216;5.624;2023-10-13T13:57:42;26.77;;;11.52;;
53875;SDS011;39789;53.216;5.624;2023-10-13T14:00:10;30.60;;;11.57;;
53875;SDS011;39789;53.216;5.624;2023-10-13T14:02:42;31.60;;;10.82;;
53875;SDS011;39789;53.216;5.624;2023-10-13T14:05:15;32.78;;;11.30;;
53875;SDS011;39789;53.216;5.624;2023-10-13T14:07:44;21.08;;;10.00;;
53875;SDS011;39789;53.216;5.624;2023-10-13T14:10:18;31.75;;;11.88;;
53875;SDS011;39789;53.216;5.624;2023-10-13T14:12:59;27.60;;;10.43;;
53875;SDS011;39789;53.216;5.624;2023-10-13T14:15:46;34.53;;;11.57;;
53875;SDS011;39789;53.216;5.624;2023-10-13T14:18:11;29.95;;;10.88;;
53875;SDS011;39789;53.216;5.624;2023-10-13T14:20:40;25.48;;;10.55;;
53875;SDS011;39789;53.216;5.624;2023-10-13T14:23:07;29.88;;;11.35;;
53875;SDS011;39789;53.216;5.624;2023-10-13T14:25:36;28.67;;;11.00;;
53875;SDS011;39789;53.216;5.624;2023-10-13T14:28:09;26.33;;;12.20;;
53875;SDS011;39789;53.216;5.624;2023-10-13T14:30:40;32.85;;;10.98;;
53875;SDS011;39789;53.216;5.624;2023-10-13T14:33:05;31.10;;;9.82;;
53875;SDS011;39789;53.216;5.624;2023-10-13T14:35:35;30.00;;;10.23;;
53875;SDS011;39789;53.216;5.624;2023-10-13T14:38:01;32.47;;;10.73;;
53875;SDS011;39789;53.216;5.624;2023-10-13T14:40:28;28.90;;;10.80;;
53875;SDS011;39789;53.216;5.624;2023-10-13T14:42:54;27.52;;;10.00;;
53875;SDS011;39789;53.216;5.624;2023-10-13T14:45:21;25.63;;;10.75;;
53875;SDS011;39789;53.216;5.624;2023-10-13T14:47:47;26.38;;;9.80;;
53875;SDS011;39789;53.216;5.624;2023-10-13T14:50:13;25.58;;;9.82;;
53875;SDS011;39789;53.216;5.624;2023-10-13T14:52:47;25.92;;;10.38;;
53875;SDS011;39789;53.216;5.624;2023-10-13T14:55:14;29.33;;;11.50;;
53875;SDS011;39789;53.216;5.624;2023-10-13T14:57:49;27.38;;;11.77;;
53875;SDS011;39789;53.216;5.624;2023-10-13T15:00:15;26.38;;;10.77;;
53875;SDS011;39789;53.216;5.624;2023-10-13T15:02:50;32.17;;;12.00;;
53875;SDS011;39789;53.216;5.624;2023-10-13T15:05:16;30.40;;;10.98;;
53875;SDS011;39789;53.216;5.624;2023-10-13T15:07:43;31.45;;;12.02;;
53875;SDS011;39789;53.216;5.624;2023-10-13T15:10:10;31.13;;;12.15;;
53875;SDS011;39789;53.216;5.624;2023-10-13T15:12:40;31.55;;;11.15;;
53875;SDS011;39789;53.216;5.624;2023-10-13T15:15:07;30.13;;;11.10;;
53875;SDS011;39789;53.216;5.624;2023-10-13T15:17:41;35.70;;;11.73;;
53875;SDS011;39789;53.216;5.624;2023-10-13T15:20:15;26.15;;;10.73;;
53875;SDS011;39789;53.216;5.624;2023-10-13T15:22:44;34.05;;;11.40;;
53875;SDS011;39789;53.216;5.624;2023-10-13T15:25:13;24.83;;;10.15;;
53875;SDS011;39789;53.216;5.624;2023-10-13T15:28:02;25.83;;;10.23;;
53875;SDS011;39789;53.216;5.624;2023-10-13T15:30:28;28.02;;;11.15;;
53875;SDS011;39789;53.216;5.624;2023-10-13T15:33:20;24.05;;;10.25;;
53875;SDS011;39789;53.216;5.624;2023-10-13T15:35:45;30.70;;;10.35;;
53875;SDS011;39789;53.216;5.624;2023-10-13T15:38:11;28.40;;;10.73;;
53875;SDS011;39789;53.216;5.624;2023-10-13T15:40:43;30.20;;;11.40;;
53875;SDS011;39789;53.216;5.624;2023-10-13T15:43:10;26.05;;;11.15;;
53875;SDS011;39789;53.216;5.624;2023-10-13T15:45:36;22.85;;;9.80;;
53875;SDS011;39789;53.216;5.624;2023-10-13T15:48:04;30.05;;;10.13;;
53875;SDS011;39789;53.216;5.624;2023-10-13T15:50:35;27.27;;;10.30;;